Jordan, MT

11:33 AM MDT on September 30, 2014 (GMT -0600)
Wiley | Change Station
CLOSE
Current Station
Airport
Location: Miles City,
Elevation: 2628 ft
Nearby Weather Stations

Elev 2628 ft 46.43 °N, 105.88 °W | Updated 20 minutes ago

Overcast
Overcast
57 °F
Feels Like 57 °F
N
8
Wind Variable Wind from WNW

Today
High -- | Low -- °F
--% Chance of Precip.
Yesterday
High -- | Low -- °F
Precip. -- in
7:04 AM 6:48 PM
Waxing Crescent, 38% visible
Pressure 29.62 in
Visibility 10.0 miles
Clouds Overcast 1500 ft
Dew Point 50 °F
Humidity 77%
Rainfall 0.00 in
Snow Depth 1 in , 0 in , 0 in
UV 1 out of 12
Pollen 1.60 out of 12
Air Quality Not available.
Flu Activity Not available.
SPECI KMLS 301713Z AUTO 30007KT 10SM OVC015 14/10 A2962 RMK AO2 T01390100

More Conditions Fewer Conditions

Pressure 29.62 in
Visibility 10.0 miles
Clouds Overcast 1500 ft
Dew Point 50 °F
Humidity 77%
Rainfall 0.00 in
Snow Depth 1 in , 0 in , 0 in
UV 1 out of 12
Pollen 1.60 out of 12
Air Quality Not available.
Flu Activity Not available.
SPECI KMLS 301713Z AUTO 30007KT 10SM OVC015 14/10 A2962 RMK AO2 T01390100

More Conditions Fewer Conditions

10-Day Weather Forecast

Almanac

Astronomy

Sep. 30, 2014 Rise Set
Actual Time 7:04 AM MDT 6:48 PM MDT
Civil Twilight 6:34 AM MDT 7:19 PM MDT
Nautical Twilight 5:58 AM MDT 7:54 PM MDT
Astronomical Twilight 5:21 AM MDT 8:31 PM MDT
Moon 1:34 PM MDT 11:02 PM MDT
Length of Visible Light 12h 44m
Length of Day
11h 43m
Tomorrow will be 3m 24s shorter.
Waxing Crescent, 38% of the Moon is Illuminated
Today
Waxing Crescent
Oct 1
First Quarter
Oct 8
Full
Oct 15
Last Quarter
Oct 23
New

Today's Extremes

State Highs State Lows

Community

WunderPhotos

Upload Photos

1,757,692 photos uploaded!

Nearby

Snow Depth

Station Depth Elevation
Brackett Creek 1 in 7320 ft
White Mill 0 in 8700 ft
Copper Bottom 0 in 5200 ft
West Yellowstone 0 in 6700 ft
Peterson Meadows 0 in 7200 ft

Earthquake Activity

City Distance Mag. Time & Date
No recent earthquake activity has been reported nearby.
Minimum magnitude displayed is 2.5.

Coastal Water Temperatures

Place Temperature
No Stations Reporting

Nearby Weather Stations